Time;durP1;ratioP1;P1;durP2;ratioP2;P2;SDS_P1;SDS_P2;PMS_P1;PMS_P2;Temp;Humidity;BMP_temperature;BMP_pressure;BME280_temperature;BME280_humidity;BME280_pressure;Samples;Min_cycle;Max_cycle;Signal;HPM_P1;HPM_P2
2021/01/06 00:00:45;;;;;;;66.90;28.17;;;;;;;-0.70;100.00;99390.62;1814072;79;21130;-73
2021/01/06 00:03:19;;;;;;;84.13;31.48;;;;;;;-0.70;100.00;99386.58;1814108;79;21042;-73
2021/01/06 00:05:53;;;;;;;77.08;29.92;;;;;;;-0.69;100.00;99387.67;1814129;79;20985;-72
2021/01/06 00:08:22;;;;;;;78.72;27.82;;;;;;;-0.69;100.00;99383.63;1814188;79;20930;-72
2021/01/06 00:10:56;;;;;;;83.40;31.55;;;;;;;-0.71;100.00;99380.36;1814114;79;21202;-72
2021/01/06 00:13:24;;;;;;;80.50;30.77;;;;;;;-0.68;100.00;99378.52;1814131;79;20950;-72
2021/01/06 00:15:52;;;;;;;71.47;27.82;;;;;;;-0.66;100.00;99376.93;1814144;79;20918;-73
2021/01/06 00:18:20;;;;;;;83.25;32.35;;;;;;;-0.67;100.00;99375.30;1814082;78;21464;-72
2021/01/06 00:20:48;;;;;;;71.00;28.42;;;;;;;-0.67;100.00;99376.64;1814170;79;20962;-72
2021/01/06 00:23:16;;;;;;;80.95;31.35;;;;;;;-0.64;100.00;99377.50;1814101;79;21368;-73
2021/01/06 00:25:45;;;;;;;79.97;31.40;;;;;;;-0.65;100.00;99379.91;1814095;79;21647;-73
2021/01/06 00:28:17;;;;;;;83.03;30.08;;;;;;;-0.67;100.00;99380.16;1814137;79;20930;-73
2021/01/06 00:30:55;;;;;;;83.60;31.00;;;;;;;-0.68;100.00;99375.83;1814419;78;21477;-73
2021/01/06 00:33:34;;;;;;;89.07;31.55;;;;;;;-0.69;100.00;99375.55;1814349;78;21044;-73
2021/01/06 00:36:18;;;;;;;97.90;35.48;;;;;;;-0.70;100.00;99374.44;1814365;79;21500;-73
2021/01/06 00:38:50;;;;;;;80.45;31.27;;;;;;;-0.71;100.00;99365.53;1814367;79;21559;-73
2021/01/06 00:41:31;;;;;;;82.25;28.98;;;;;;;-0.69;100.00;99370.68;1814327;79;20982;-73
2021/01/06 00:43:59;;;;;;;81.12;32.15;;;;;;;-0.70;100.00;99375.26;1813534;78;21014;-73
2021/01/06 00:46:30;;;;;;;81.42;30.65;;;;;;;-0.72;100.00;99377.91;1812247;79;21540;-73
2021/01/06 00:48:58;;;;;;;79.30;30.77;;;;;;;-0.72;100.00;99377.91;1812279;79;21541;-73
2021/01/06 00:51:27;;;;;;;87.25;33.28;;;;;;;-0.71;100.00;99380.36;1812245;79;20946;-72
2021/01/06 00:53:57;;;;;;;104.17;35.25;;;;;;;-0.72;100.00;99380.08;1812276;79;21013;-72
2021/01/06 00:56:31;;;;;;;94.05;32.60;;;;;;;-0.72;100.00;99379.26;1787099;79;21053;-72
2021/01/06 00:58:59;;;;;;;89.47;34.00;;;;;;;-0.73;100.00;99378.98;1812286;79;20938;-73
2021/01/06 01:01:28;;;;;;;86.15;34.67;;;;;;;-0.75;100.00;99379.22;1812268;79;21809;-73
2021/01/06 01:03:57;;;;;;;98.10;35.68;;;;;;;-0.76;100.00;99369.50;1812180;79;20994;-73
2021/01/06 01:06:30;;;;;;;108.83;36.68;;;;;;;-0.74;100.00;99374.11;1812269;79;21592;-74
2021/01/06 01:09:00;;;;;;;93.55;35.80;;;;;;;-0.71;100.00;99368.23;1811843;78;21560;-73
2021/01/06 01:11:27;;;;;;;100.53;37.90;;;;;;;-0.71;100.00;99364.19;1812236;79;20990;-73
2021/01/06 01:13:55;;;;;;;103.80;36.93;;;;;;;-0.71;100.00;99368.77;1812259;79;21389;-72
2021/01/06 01:16:23;;;;;;;96.63;35.85;;;;;;;-0.71;100.00;99366.06;1812216;79;20934;-73
2021/01/06 01:18:50;;;;;;;116.95;40.98;;;;;;;-0.71;100.00;99365.53;1812242;79;20880;-73
2021/01/06 01:21:21;;;;;;;97.42;37.70;;;;;;;-0.70;100.00;99362.31;1812240;79;20982;-73
2021/01/06 01:23:49;;;;;;;107.00;39.60;;;;;;;-0.70;100.00;99368.52;1812186;79;21136;-72
2021/01/06 01:26:17;;;;;;;116.33;40.50;;;;;;;-0.68;100.00;99368.27;1812328;79;22265;-72
2021/01/06 01:28:44;;;;;;;124.33;42.70;;;;;;;-0.67;100.00;99369.91;1812198;79;20934;-71
2021/01/06 01:31:12;;;;;;;110.63;41.25;;;;;;;-0.68;100.00;99365.58;1812333;79;21466;-71
2021/01/06 01:33:41;;;;;;;118.93;43.50;;;;;;;-0.69;100.00;99367.45;1812227;79;21035;-71
2021/01/06 01:36:09;;;;;;;120.10;40.75;;;;;;;-0.71;100.00;99365.53;1812265;79;21034;-71
2021/01/06 01:38:36;;;;;;;109.30;39.23;;;;;;;-0.72;100.00;99361.20;1812227;79;21644;-72
2021/01/06 01:41:10;;;;;;;110.75;38.45;;;;;;;-0.72;100.00;99362.55;1812255;79;21517;-73
2021/01/06 01:43:37;;;;;;;112.47;39.78;;;;;;;-0.68;100.00;99360.19;1812152;79;20970;-72
2021/01/06 01:46:10;;;;;;;113.22;40.52;;;;;;;-0.68;100.00;99362.34;1809429;79;21611;-72
2021/01/06 01:48:42;;;;;;;101.20;37.75;;;;;;;-0.69;100.00;99344.54;1809423;79;20974;-72
2021/01/06 01:51:40;;;;;;;99.42;37.42;;;;;;;-0.68;100.00;99346.17;1809540;79;22064;-71
2021/01/06 01:54:13;;;;;;;98.27;36.03;;;;;;;-0.67;100.00;99341.59;1827002;77;20963;-71
2021/01/06 01:57:07;;;;;;;102.80;37.48;;;;;;;-0.67;100.00;99338.91;1812082;77;21473;-71
2021/01/06 01:59:46;;;;;;;104.70;39.00;;;;;;;-0.67;100.00;99337.02;1811095;79;20914;-71
2021/01/06 02:02:26;;;;;;;104.55;37.03;;;;;;;-0.65;100.00;99333.27;1811068;78;20966;-72
2021/01/06 02:04:56;;;;;;;107.17;37.88;;;;;;;-0.65;100.00;99325.17;1811108;79;21109;-73
2021/01/06 02:07:27;;;;;;;108.15;38.30;;;;;;;-0.64;100.00;99330.85;1811061;79;20907;-73
2021/01/06 02:10:18;;;;;;;101.53;36.42;;;;;;;-0.66;100.00;99335.14;1811125;79;21600;-73
2021/01/06 02:12:57;;;;;;;103.40;35.48;;;;;;;-0.67;100.00;99337.55;1811052;79;20994;-72
2021/01/06 02:15:42;;;;;;;102.85;38.65;;;;;;;-0.68;100.00;99344.01;1811117;79;20899;-72
2021/01/06 02:18:10;;;;;;;115.20;41.60;;;;;;;-0.65;100.00;99347.56;1810487;78;21197;-72
2021/01/06 02:20:37;;;;;;;110.95;41.18;;;;;;;-0.64;100.00;99349.72;1811039;79;20951;-72
2021/01/06 02:23:05;;;;;;;114.47;39.75;;;;;;;-0.65;100.00;99347.56;1811037;79;21156;-73
2021/01/06 02:25:32;;;;;;;111.00;35.85;;;;;;;-0.64;100.00;99351.89;1811019;79;20954;-72
2021/01/06 02:28:00;;;;;;;102.27;38.10;;;;;;;-0.63;100.00;99351.36;1811088;79;20919;-72
2021/01/06 02:30:28;;;;;;;101.50;36.70;;;;;;;-0.65;100.00;99362.39;1811015;79;21345;-72
2021/01/06 02:32:56;;;;;;;85.15;33.48;;;;;;;-0.68;100.00;99362.88;1810976;79;21037;-72
2021/01/06 02:35:25;;;;;;;110.37;41.30;;;;;;;-0.67;100.00;99354.55;1797722;79;21034;-72
2021/01/06 02:37:53;;;;;;;102.62;38.40;;;;;;;-0.65;100.00;99361.04;1811024;79;21500;-70
2021/01/06 02:40:25;;;;;;;114.52;37.55;;;;;;;-0.64;100.00;99361.86;1811075;79;21042;-71
2021/01/06 02:42:52;;;;;;;97.65;36.38;;;;;;;-0.65;100.00;99350.26;1810944;78;21276;-71
2021/01/06 02:45:19;;;;;;;95.65;36.05;;;;;;;-0.64;100.00;99357.81;1810916;78;21534;-72
2021/01/06 02:47:48;;;;;;;98.75;35.20;;;;;;;-0.64;100.00;99356.47;1811037;79;20995;-72
2021/01/06 02:50:19;;;;;;;104.03;37.23;;;;;;;-0.67;100.00;99347.80;1811013;79;20997;-73
2021/01/06 02:52:57;;;;;;;92.82;33.73;;;;;;;-0.65;100.00;99343.52;1811075;79;21141;-72
2021/01/06 02:55:25;;;;;;;98.85;38.30;;;;;;;-0.65;100.00;99342.70;1772475;79;21379;-71
2021/01/06 02:57:53;;;;;;;82.92;33.63;;;;;;;-0.63;100.00;99350.01;1810966;79;20927;-72
2021/01/06 03:00:25;;;;;;;91.32;35.43;;;;;;;-0.63;100.00;99350.01;1811039;79;20923;-71
2021/01/06 03:02:53;;;;;;;90.97;34.65;;;;;;;-0.65;100.00;99350.78;1811145;79;21061;-72
2021/01/06 03:05:43;;;;;;;96.60;36.15;;;;;;;-0.68;100.00;99352.91;1811031;79;20907;-72
2021/01/06 03:08:13;;;;;;;84.90;33.63;;;;;;;-0.67;100.00;99359.94;1811072;79;22303;-72
2021/01/06 03:10:41;;;;;;;102.35;36.48;;;;;;;-0.63;100.00;99355.41;1811027;79;20927;-72
2021/01/06 03:13:08;;;;;;;105.30;39.33;;;;;;;-0.63;100.00;99352.70;1811039;79;20983;-72
2021/01/06 03:15:36;;;;;;;96.42;36.17;;;;;;;-0.63;100.00;99352.70;1811056;79;21573;-73
2021/01/06 03:18:04;;;;;;;96.47;34.50;;;;;;;-0.63;100.00;99365.66;1811125;79;20919;-73
2021/01/06 03:20:36;;;;;;;94.87;36.28;;;;;;;-0.62;100.00;99365.12;1811088;79;22106;-73
2021/01/06 03:23:08;;;;;;;101.05;35.52;;;;;;;-0.63;100.00;99368.87;1797922;79;21477;-75
2021/01/06 03:25:37;;;;;;;101.65;38.20;;;;;;;-0.64;100.00;99364.55;1811131;79;21033;-74
2021/01/06 03:28:04;;;;;;;101.82;38.85;;;;;;;-0.63;100.00;99366.19;1811009;79;20907;-74
2021/01/06 03:30:33;;;;;;;97.30;36.70;;;;;;;-0.61;100.00;99368.10;1797513;79;21053;-74
2021/01/06 03:33:15;;;;;;;96.05;35.38;;;;;;;-0.59;100.00;99365.98;1811085;79;22338;-73
2021/01/06 03:35:54;;;;;;;95.00;34.03;;;;;;;-0.56;100.00;99362.22;1811050;79;20927;-73
2021/01/06 03:38:34;;;;;;;94.77;35.30;;;;;;;-0.57;100.00;99357.08;1811038;79;20911;-72
2021/01/06 03:41:02;;;;;;;90.92;35.55;;;;;;;-0.59;100.00;99360.58;1797433;79;21045;-72
2021/01/06 03:43:31;;;;;;;92.22;33.80;;;;;;;-0.60;100.00;99366.51;1811038;79;21464;-72
2021/01/06 03:46:12;;;;;;;88.97;33.35;;;;;;;-0.60;100.00;99357.60;1810938;79;22637;-73
2021/01/06 03:48:51;;;;;;;84.45;33.85;;;;;;;-0.59;100.00;99360.58;1810964;79;21093;-72
2021/01/06 03:51:30;;;;;;;86.57;33.28;;;;;;;-0.61;100.00;99358.67;1811009;79;20970;-72
2021/01/06 03:54:00;;;;;;;87.75;33.50;;;;;;;-0.60;100.00;99356.25;1811030;78;21105;-72
2021/01/06 03:56:31;;;;;;;81.87;32.93;;;;;;;-0.60;100.00;99365.69;1811295;79;21113;-72
2021/01/06 03:59:10;;;;;;;81.28;32.20;;;;;;;-0.61;100.00;99351.92;1811014;79;21771;-70
2021/01/06 04:02:10;;;;;;;80.53;31.73;;;;;;;-0.60;100.00;99354.91;1797320;79;20974;-72
2021/01/06 04:05:02;;;;;;;83.55;32.58;;;;;;;-0.59;100.00;99359.23;1811164;79;21466;-73
2021/01/06 04:07:41;;;;;;;73.90;30.62;;;;;;;-0.61;100.00;99366.22;1790577;78;21113;-72
2021/01/06 04:10:20;;;;;;;80.85;31.93;;;;;;;-0.61;100.00;99368.92;1811242;78;21113;-72
2021/01/06 04:12:47;;;;;;;83.92;32.30;;;;;;;-0.61;100.00;99367.57;1811314;79;22251;-73
2021/01/06 04:15:16;;;;;;;82.60;33.60;;;;;;;-0.60;100.00;99373.78;1811216;79;21608;-72
2021/01/06 04:17:49;;;;;;;79.92;31.23;;;;;;;-0.60;100.00;99369.73;1811182;79;21053;-72
2021/01/06 04:20:33;;;;;;;73.52;30.82;;;;;;;-0.60;100.00;99368.39;1811177;79;20994;-70
2021/01/06 04:23:07;;;;;;;76.85;31.57;;;;;;;-0.60;100.00;99357.07;1811240;78;21477;-71
2021/01/06 04:25:41;;;;;;;73.80;30.60;;;;;;;-0.59;100.00;99355.19;1811172;79;21199;-71
2021/01/06 04:28:23;;;;;;;75.60;31.55;;;;;;;-0.58;100.00;99356.83;1811114;79;20951;-69
2021/01/06 04:31:00;;;;;;;74.75;31.57;;;;;;;-0.58;100.00;99358.17;1811345;79;21453;-70
2021/01/06 04:33:44;;;;;;;72.08;29.92;;;;;;;-0.59;100.00;99357.36;1811123;79;20975;-71
2021/01/06 04:36:19;;;;;;;75.15;30.48;;;;;;;-0.60;100.00;99362.47;1811219;79;20946;-71
2021/01/06 04:38:50;;;;;;;72.42;30.80;;;;;;;-0.57;100.00;99372.72;1811198;79;21196;-71
2021/01/06 04:41:49;;;;;;;69.75;30.72;;;;;;;-0.56;100.00;99377.05;1811186;79;21544;-72
2021/01/06 04:44:42;;;;;;;69.47;28.80;;;;;;;-0.53;100.00;99378.44;1818660;77;21006;-72
2021/01/06 04:47:50;;;;;;;75.20;29.18;;;;;;;-0.55;100.00;99380.03;1784087;80;21112;-71
2021/01/06 04:50:53;;;;;;;74.32;31.00;;;;;;;-0.54;100.00;99375.45;1784163;80;21600;-69
2021/01/06 04:53:39;;;;;;;69.60;29.05;;;;;;;-0.54;100.00;99379.50;1795211;79;22218;-69
2021/01/06 04:56:28;;;;;;;70.78;29.63;;;;;;;-0.49;100.00;99378.23;1816239;79;20990;-69
2021/01/06 04:59:04;;;;;;;79.17;30.20;;;;;;;-0.51;100.00;99384.40;1753370;79;21069;-69
2021/01/06 05:01:41;;;;;;;71.42;29.42;;;;;;;-0.53;100.00;99383.83;1816234;79;20922;-68
2021/01/06 05:04:38;;;;;;;71.70;29.48;;;;;;;-0.52;100.00;99380.07;1814898;79;21001;-69
2021/01/06 05:07:40;;;;;;;65.92;28.35;;;;;;;-0.52;100.00;99380.89;1816282;79;21321;-68
2021/01/06 05:10:26;;;;;;;59.90;25.27;;;;;;;-0.55;100.00;99384.08;1815938;79;21830;-67
2021/01/06 05:12:59;;;;;;;68.60;29.27;;;;;;;-0.56;100.00;99392.41;1816233;79;20922;-68
2021/01/06 05:15:44;;;;;;;57.08;25.35;;;;;;;-0.57;100.00;99390.78;1816257;79;21167;-68
2021/01/06 05:18:11;;;;;;;55.30;24.95;;;;;;;-0.59;100.00;99386.20;1816310;79;21034;-67
2021/01/06 05:20:39;;;;;;;61.33;26.75;;;;;;;-0.59;100.00;99391.06;1789342;79;21365;-67
2021/01/06 05:23:17;;;;;;;62.55;26.80;;;;;;;-0.60;100.00;99381.34;1816128;79;21014;-67
2021/01/06 05:25:45;;;;;;;67.50;28.17;;;;;;;-0.59;100.00;99383.50;1816181;79;21040;-66
2021/01/06 05:28:19;;;;;;;66.22;28.17;;;;;;;-0.60;100.00;99384.03;1816215;79;21066;-67
2021/01/06 05:30:51;;;;;;;64.45;27.07;;;;;;;-0.59;100.00;99385.66;1816379;79;21544;-68
2021/01/06 05:33:33;;;;;;;71.65;31.82;;;;;;;-0.59;100.00;99388.89;1790442;79;21260;-70
2021/01/06 05:36:01;;;;;;;68.00;29.07;;;;;;;-0.60;100.00;99396.16;1816327;79;20891;-72
2021/01/06 05:38:29;;;;;;;59.83;26.85;;;;;;;-0.59;100.00;99396.98;1816195;79;20985;-69
2021/01/06 05:40:56;;;;;;;73.92;30.35;;;;;;;-0.57;100.00;99396.98;1816194;79;22037;-69
2021/01/06 05:43:41;;;;;;;64.92;28.60;;;;;;;-0.56;100.00;99395.92;1816254;79;21053;-70
2021/01/06 05:46:17;;;;;;;62.85;27.85;;;;;;;-0.56;100.00;99405.36;1832053;77;21365;-70
2021/01/06 05:48:50;;;;;;;64.80;28.15;;;;;;;-0.57;100.00;99406.43;1806388;79;20966;-73
2021/01/06 05:51:32;;;;;;;63.80;27.02;;;;;;;-0.57;100.00;99406.43;1806572;79;21002;-69
2021/01/06 05:54:08;;;;;;;57.38;26.50;;;;;;;-0.57;100.00;99402.38;1806729;79;21813;-70
2021/01/06 05:56:59;;;;;;;59.00;26.33;;;;;;;-0.55;100.00;99403.48;1805836;79;21014;-69
2021/01/06 05:59:51;;;;;;;53.02;24.40;;;;;;;-0.56;100.00;99404.02;1849429;77;21195;-69
2021/01/06 06:02:40;;;;;;;56.65;25.15;;;;;;;-0.57;100.00;99409.13;1806509;79;21018;-72
2021/01/06 06:05:37;;;;;;;53.38;23.52;;;;;;;-0.57;100.00;99413.17;1754051;79;20950;-71
2021/01/06 06:08:20;;;;;;;52.17;22.85;;;;;;;-0.57;100.00;99412.35;1799454;79;21029;-71
2021/01/06 06:11:15;;;;;;;52.62;23.25;;;;;;;-0.58;100.00;99413.44;1805457;79;21002;-71
2021/01/06 06:14:11;;;;;;;45.58;21.00;;;;;;;-0.57;100.00;99421.79;1849260;77;21572;-69
2021/01/06 06:17:18;;;;;;;46.05;21.48;;;;;;;-0.59;100.00;99424.76;1798469;77;21104;-72
2021/01/06 06:20:19;;;;;;;50.88;23.92;;;;;;;-0.60;100.00;99427.70;1849150;77;21113;-72
2021/01/06 06:23:24;;;;;;;50.23;22.10;;;;;;;-0.59;100.00;99437.42;1806632;79;21544;-73
2021/01/06 06:26:27;;;;;;;48.60;22.58;;;;;;;-0.59;100.00;99430.16;1806529;79;21070;-73
2021/01/06 06:29:20;;;;;;;52.67;24.25;;;;;;;-0.59;100.00;99435.55;1806642;79;22249;-74
2021/01/06 06:31:51;;;;;;;46.13;21.82;;;;;;;-0.58;100.00;99440.41;1806480;79;21096;-72
2021/01/06 06:34:30;;;;;;;48.33;21.25;;;;;;;-0.58;100.00;99435.83;1806438;79;20971;-73
2021/01/06 06:37:17;;;;;;;46.20;20.85;;;;;;;-0.55;100.00;99438.54;1805899;79;20959;-73
2021/01/06 06:39:47;;;;;;;50.55;22.75;;;;;;;-0.55;100.00;99435.31;1795718;79;21073;-72
2021/01/06 06:42:24;;;;;;;53.10;23.98;;;;;;;-0.53;100.00;99439.11;1827465;78;21371;-72
2021/01/06 06:45:02;;;;;;;50.20;23.65;;;;;;;-0.56;100.00;99435.55;1827347;78;21041;-69
2021/01/06 06:47:55;;;;;;;49.13;24.65;;;;;;;-0.56;100.00;99434.20;1813510;77;21571;-73
2021/01/06 06:50:51;;;;;;;;;;;;;;;-0.54;100.00;99436.13;1796157;79;21456;-73
2021/01/06 06:53:46;;;;;;;49.27;21.10;;;;;;;-0.53;100.00;99443.97;1800038;79;20189;-75
2021/01/06 06:56:41;;;;;;;56.85;23.60;;;;;;;-0.52;100.00;99442.91;1797381;77;21205;-73
2021/01/06 06:59:54;;;;;;;49.20;23.07;;;;;;;-0.49;100.00;99446.99;1788938;80;20985;-74
2021/01/06 07:02:23;;;;;;;59.23;24.40;;;;;;;-0.50;100.00;99445.36;1789370;80;20914;-75
2021/01/06 07:04:54;;;;;;;58.98;26.07;;;;;;;-0.52;100.00;99452.87;1763196;80;20945;-77
2021/01/06 07:07:45;;;;;;;58.45;26.35;;;;;;;-0.50;100.00;99447.53;1789494;80;20913;-76
2021/01/06 07:10:23;;;;;;;59.27;26.90;;;;;;;-0.50;100.00;99454.80;1788873;80;21363;-74
2021/01/06 07:12:54;;;;;;;77.03;31.02;;;;;;;-0.48;100.00;99462.11;1812048;79;21109;-75
2021/01/06 07:15:35;;;;;;;87.53;36.38;;;;;;;-0.45;100.00;99466.48;1815500;79;21016;-74
2021/01/06 07:18:42;;;;;;;70.37;32.78;;;;;;;-0.42;100.00;99461.95;1815208;79;20953;-74
2021/01/06 07:21:22;;;;;;;86.75;30.77;;;;;;;-0.41;100.00;99462.23;1806514;79;21111;-75
2021/01/06 07:24:08;;;;;;;58.23;27.85;;;;;;;-0.39;100.00;99461.98;1816150;79;21260;-74
2021/01/06 07:26:41;;;;;;;54.25;25.32;;;;;;;-0.40;100.00;99457.12;1741954;82;21150;-75
2021/01/06 07:29:11;;;;;;;63.83;27.98;;;;;;;-0.37;100.00;99463.91;1761884;81;20978;-75
2021/01/06 07:31:47;;;;;;;59.25;29.48;;;;;;;-0.34;100.00;99452.63;1774919;80;21114;-75
2021/01/06 07:34:22;;;;;;;62.30;28.70;;;;;;;-0.35;100.00;99457.20;1775089;80;20940;-75
2021/01/06 07:36:55;;;;;;;57.90;27.20;;;;;;;-0.34;100.00;99457.48;1774938;80;21360;-75
2021/01/06 07:39:30;;;;;;;56.98;29.05;;;;;;;-0.32;100.00;99461.29;1774920;80;20940;-75
2021/01/06 07:42:07;;;;;;;52.58;26.68;;;;;;;-0.32;100.00;99459.94;1774981;80;20988;-75
2021/01/06 07:44:37;;;;;;;52.75;25.17;;;;;;;-0.30;100.00;99463.20;1774924;80;20921;-75
2021/01/06 07:47:16;;;;;;;52.20;24.35;;;;;;;-0.30;100.00;99459.16;1795066;79;20954;-75
2021/01/06 07:49:56;;;;;;;61.08;27.45;;;;;;;-0.28;100.00;99463.78;1809853;79;21045;-75
2021/01/06 07:52:56;;;;;;;68.02;29.42;;;;;;;-0.27;100.00;99460.02;1809859;79;21069;-75
2021/01/06 07:55:33;;;;;;;58.25;28.23;;;;;;;-0.25;100.00;99464.63;1809679;79;20891;-75
2021/01/06 07:58:11;;;;;;;66.45;29.57;;;;;;;-0.23;100.00;99457.64;1809879;79;21094;-75
2021/01/06 08:01:00;;;;;;;63.23;27.20;;;;;;;-0.23;100.00;99463.04;1809873;79;21120;-76
2021/01/06 08:03:48;;;;;;;60.75;26.57;;;;;;;-0.24;100.00;99469.50;1809881;79;21250;-75
2021/01/06 08:06:20;;;;;;;60.65;26.25;;;;;;;-0.24;100.00;99474.36;1809886;79;21093;-75
2021/01/06 08:08:51;;;;;;;60.33;27.07;;;;;;;-0.23;100.00;99481.39;1809997;79;21588;-75
2021/01/06 08:11:20;;;;;;;62.50;26.17;;;;;;;-0.23;100.00;99473.30;1810019;79;26493;-75
2021/01/06 08:13:53;;;;;;;63.02;27.13;;;;;;;-0.24;100.00;99474.36;1809887;79;21121;-75
2021/01/06 08:16:42;;;;;;;62.67;27.15;;;;;;;-0.25;100.00;99479.47;1809860;79;21186;-75
2021/01/06 08:19:36;;;;;;;68.72;27.95;;;;;;;-0.25;100.00;99476.77;1809626;79;21014;-75
2021/01/06 08:22:27;;;;;;;74.65;30.77;;;;;;;-0.26;100.00;99481.06;1809915;79;20942;-75
2021/01/06 08:25:17;;;;;;;74.03;30.12;;;;;;;-0.28;100.00;99478.62;1809564;78;20966;-75
2021/01/06 08:27:47;;;;;;;71.92;30.50;;;;;;;-0.30;100.00;99475.34;1809943;79;21540;-76
2021/01/06 08:30:29;;;;;;;76.15;30.92;;;;;;;-0.28;100.00;99475.92;1809833;79;23514;-75
2021/01/06 08:33:07;;;;;;;76.23;30.03;;;;;;;-0.26;100.00;99473.80;1810058;79;20982;-75
2021/01/06 08:35:42;;;;;;;79.65;30.40;;;;;;;-0.24;100.00;99467.62;1809886;79;21347;-75
2021/01/06 08:38:31;;;;;;;74.32;32.80;;;;;;;-0.24;100.00;99470.84;1809951;79;21543;-75
2021/01/06 08:41:18;;;;;;;81.22;31.93;;;;;;;-0.25;100.00;99474.08;1809858;79;21084;-76
2021/01/06 08:43:46;;;;;;;76.92;30.32;;;;;;;-0.24;100.00;99477.06;1809980;79;21481;-72
2021/01/06 08:46:24;;;;;;;79.15;30.02;;;;;;;-0.23;100.00;99476.53;1790782;79;20955;-77
2021/01/06 08:48:52;;;;;;;74.65;28.42;;;;;;;-0.23;100.00;99479.23;1815626;79;21085;-75
2021/01/06 08:51:31;;;;;;;79.22;29.90;;;;;;;-0.23;100.00;99480.58;1829282;77;21013;-76
2021/01/06 08:54:15;;;;;;;67.72;27.37;;;;;;;-0.22;100.00;99476.28;1849159;77;20923;-75
2021/01/06 08:56:43;;;;;;;77.00;30.05;;;;;;;-0.18;100.00;99475.25;1785617;78;21377;-76
2021/01/06 08:59:26;;;;;;;75.85;28.70;;;;;;;-0.17;100.00;99478.23;1827530;77;20939;-78
2021/01/06 09:01:57;;;;;;;;;;;;;;;-0.17;100.00;99479.06;1845482;77;20941;-77
2021/01/06 09:04:42;;;;;;;81.02;31.07;;;;;;;-0.17;100.00;99483.11;1839960;77;20146;-77
2021/01/06 09:07:22;;;;;;;75.35;31.42;;;;;;;-0.16;100.00;99475.83;1849344;77;20990;-78
2021/01/06 09:10:13;;;;;;;84.35;33.30;;;;;;;-0.13;100.00;99486.94;1849353;77;21435;-77
2021/01/06 09:12:59;;;;;;;77.70;30.88;;;;;;;-0.10;100.00;99485.63;1849188;77;20886;-79
2021/01/06 09:15:37;;;;;;;72.78;29.57;;;;;;;-0.09;100.00;99487.27;1849421;77;21567;-74
2021/01/06 09:18:22;;;;;;;81.87;31.75;;;;;;;-0.11;100.00;99488.86;1849724;77;21492;-79
2021/01/06 09:21:17;;;;;;;82.37;31.40;;;;;;;-0.09;100.00;99487.27;1848801;77;21104;-79
2021/01/06 09:23:54;;;;;;;86.32;32.75;;;;;;;-0.07;100.00;99477.86;1832178;77;21436;-77
2021/01/06 09:26:25;;;;;;;79.50;30.40;;;;;;;-0.04;100.00;99480.06;1849421;77;20918;-76
2021/01/06 09:29:07;;;;;;;76.17;29.52;;;;;;;-0.02;100.00;99484.68;1849573;77;21033;-77
2021/01/06 09:31:50;;;;;;;78.57;29.63;;;;;;;0.00;100.00;99489.27;1849417;77;21191;-73
2021/01/06 09:34:27;;;;;;;74.00;27.05;;;;;;;0.03;100.00;99487.14;1819499;77;21126;-78
2021/01/06 09:36:55;;;;;;;86.50;32.70;;;;;;;0.05;100.00;99485.01;1849363;77;21364;-81
2021/01/06 09:39:26;;;;;;;82.78;34.15;;;;;;;0.06;100.00;99481.24;1849229;77;21497;-81
2021/01/06 09:41:58;;;;;;;106.05;42.13;;;;;;;0.02;100.00;99483.63;1849357;77;20938;-79
2021/01/06 09:44:31;;;;;;;97.17;40.35;;;;;;;0.02;100.00;99488.20;1849450;77;20994;-80
2021/01/06 09:47:23;;;;;;;86.05;35.55;;;;;;;0.03;100.00;99487.14;1850131;77;20958;-75
2021/01/06 09:49:58;;;;;;;89.95;35.65;;;;;;;0.05;100.00;99489.05;1824845;77;21372;-75
2021/01/06 09:52:33;;;;;;;77.58;33.90;;;;;;;0.04;100.00;99489.59;1852521;77;21559;-76
2021/01/06 09:55:00;;;;;;;123.70;53.73;;;;;;;0.04;100.00;99489.59;1852535;77;20970;-75
2021/01/06 09:57:28;;;;;;;117.33;54.77;;;;;;;0.01;100.00;99487.38;1848825;77;21540;-80
2021/01/06 09:59:59;;;;;;;139.55;64.17;;;;;;;-0.01;100.00;99493.06;1815244;78;21167;-75
2021/01/06 10:02:32;;;;;;;119.85;52.35;;;;;;;0.03;100.00;99495.23;1819229;78;22341;-77
2021/01/06 10:05:22;;;;;;;139.72;65.15;;;;;;;0.08;100.00;99492.08;1824150;77;21572;-74
2021/01/06 10:07:55;;;;;;;88.60;35.70;;;;;;;0.12;100.00;99487.81;1828579;77;20999;-74
2021/01/06 10:10:29;;;;;;;104.45;43.80;;;;;;;0.17;100.00;99481.67;1818571;78;21173;-75
2021/01/06 10:13:32;;;;;;;106.67;49.08;;;;;;;0.17;100.00;99483.02;1848772;77;21155;-78
2021/01/06 10:16:18;;;;;;;113.85;50.35;;;;;;;0.14;100.00;99490.27;1852278;77;21201;-76
2021/01/06 10:19:30;;;;;;;104.00;42.25;;;;;;;0.15;100.00;99489.20;1852305;77;21171;-74
2021/01/06 10:22:28;;;;;;;106.27;42.98;;;;;;;0.17;100.00;99487.06;1852200;77;21045;-80
2021/01/06 10:25:11;;;;;;;107.90;42.55;;;;;;;0.18;100.00;99488.70;1831092;77;21167;-78
2021/01/06 10:28:07;;;;;;;89.67;34.25;;;;;;;0.20;100.00;99482.52;1851947;77;20974;-77
2021/01/06 10:30:35;;;;;;;94.37;35.17;;;;;;;0.18;100.00;99477.38;1821544;78;21472;-78
2021/01/06 10:33:17;;;;;;;81.20;31.75;;;;;;;0.18;100.00;99484.66;1821527;78;20899;-74
2021/01/06 10:35:58;;;;;;;88.13;33.90;;;;;;;0.17;100.00;99481.67;1821860;78;20915;-74
2021/01/06 10:38:33;;;;;;;89.45;33.23;;;;;;;0.16;100.00;99480.03;1821876;78;21341;-72
2021/01/06 10:41:27;;;;;;;96.17;35.28;;;;;;;0.17;100.00;99481.67;1821691;78;21049;-80
2021/01/06 10:43:56;;;;;;;107.55;38.53;;;;;;;0.16;100.00;99475.98;1821810;78;21329;-77
2021/01/06 10:46:47;;;;;;;101.82;38.02;;;;;;;0.19;100.00;99482.23;1821655;78;21082;-76
2021/01/06 10:49:24;;;;;;;102.27;37.10;;;;;;;0.22;100.00;99477.69;1824558;78;21038;-78
2021/01/06 10:52:08;;;;;;;85.83;34.05;;;;;;;0.23;100.00;99477.97;1824545;78;21472;-79
2021/01/06 10:54:48;;;;;;;106.65;36.45;;;;;;;0.23;100.00;99481.48;1824451;78;21583;-78
2021/01/06 10:57:27;;;;;;;96.55;34.58;;;;;;;0.22;100.00;99484.44;1824488;78;21277;-78
2021/01/06 11:00:26;;;;;;;86.37;31.40;;;;;;;0.25;100.00;99481.23;1824493;78;20938;-78
2021/01/06 11:03:14;;;;;;;120.15;50.40;;;;;;;0.28;100.00;99480.73;1808343;78;20937;-78
2021/01/06 11:06:13;;;;;;;101.10;37.80;;;;;;;0.28;100.00;99471.29;1824575;78;21452;-78
2021/01/06 11:09:07;;;;;;;99.58;35.13;;;;;;;0.30;100.00;99475.37;1824526;78;21468;-77
2021/01/06 11:12:04;;;;;;;92.05;35.38;;;;;;;0.28;100.00;99467.24;1822887;78;21376;-78
2021/01/06 11:15:09;;;;;;;97.35;33.28;;;;;;;0.31;100.00;99481.05;1824535;78;20934;-76
2021/01/06 11:17:40;;;;;;;93.00;32.83;;;;;;;0.32;100.00;99473.23;1824583;78;21560;-77
2021/01/06 11:23:30;;;;;;;116.77;44.90;;;;;;;0.37;100.00;99475.19;1873694;75;22739;-78
2021/01/06 11:26:01;;;;;;;134.00;54.50;;;;;;;0.35;100.00;99484.61;1812780;77;20885;-78
2021/01/06 11:29:09;;;;;;;155.10;74.75;;;;;;;0.36;100.00;99487.06;1808748;79;21491;-77
2021/01/06 11:31:39;;;;;;;122.65;52.53;;;;;;;0.38;100.00;99483.58;1806472;78;21019;-76
2021/01/06 11:34:13;;;;;;;108.47;40.17;;;;;;;0.39;100.00;99492.49;1808678;79;20996;-76
2021/01/06 11:36:53;;;;;;;122.87;41.50;;;;;;;0.37;100.00;99500.84;1808375;79;21005;-75
2021/01/06 11:39:42;;;;;;;113.42;42.50;;;;;;;0.37;100.00;99502.20;1808679;78;21486;-76
2021/01/06 11:42:16;;;;;;;111.65;40.15;;;;;;;0.39;100.00;99510.05;1808378;79;21315;-76
2021/01/06 11:45:04;;;;;;;94.15;35.68;;;;;;;0.39;100.00;99501.41;1808263;79;21082;-77
2021/01/06 11:47:49;;;;;;;89.60;34.18;;;;;;;0.42;100.00;99501.45;1808546;79;20956;-77
2021/01/06 11:50:41;;;;;;;88.92;34.27;;;;;;;0.45;100.00;99507.16;1808451;79;21541;-85
2021/01/06 11:53:28;;;;;;;81.37;30.97;;;;;;;0.43;100.00;99506.59;1808564;79;21475;-85
2021/01/06 11:56:20;;;;;;;91.30;34.67;;;;;;;0.45;100.00;99507.70;1808391;79;21364;-83
2021/01/06 11:59:23;;;;;;;80.90;31.47;;;;;;;0.48;100.00;99501.27;1808327;79;21158;-77
2021/01/06 12:02:06;;;;;;;97.85;37.10;;;;;;;0.54;100.00;99500.80;1808410;79;20948;-84
2021/01/06 12:05:03;;;;;;;;;;;;;;;0.70;100.00;99497.18;1811141;79;21597;-74